createdAt,value
2022-07-27T00:00:52.618Z,5.63
2022-07-27T00:05:55.878Z,3.93
2022-07-27T00:10:59.101Z,6.10
2022-07-27T00:16:02.549Z,3.90
2022-07-27T00:21:05.934Z,5.93
2022-07-27T00:26:09.363Z,5.53
2022-07-27T00:31:12.906Z,5.73
2022-07-27T00:36:16.423Z,6.33
2022-07-27T00:41:19.662Z,6.17
2022-07-27T00:46:24.050Z,4.63
2022-07-27T00:51:27.601Z,2.50
2022-07-27T00:56:31.163Z,5.10
2022-07-27T01:01:34.932Z,3.80
2022-07-27T01:06:38.901Z,3.97
2022-07-27T01:11:42.555Z,4.83
2022-07-27T01:16:45.862Z,4.20
2022-07-27T01:21:50.550Z,5.60
2022-07-27T01:26:53.661Z,4.30
2022-07-27T01:31:56.987Z,4.20
2022-07-27T01:37:04.820Z,6.03
2022-07-27T01:42:08.172Z,5.50
2022-07-27T01:47:14.464Z,3.77
2022-07-27T01:52:18.100Z,3.93
2022-07-27T01:57:21.601Z,4.60
2022-07-27T02:02:24.842Z,3.23
2022-07-27T02:07:28.543Z,3.70
2022-07-27T02:12:37.786Z,2.77
2022-07-27T02:17:41.541Z,3.40
2022-07-27T02:22:46.199Z,8.03
2022-07-27T02:27:50.329Z,6.30
2022-07-27T02:32:53.658Z,6.40
2022-07-27T02:37:56.839Z,4.67
2022-07-27T02:43:00.500Z,9.50
2022-07-27T02:48:03.932Z,6.33
2022-07-27T02:53:07.107Z,8.37
2022-07-27T02:58:10.443Z,7.47
2022-07-27T03:03:14.379Z,6.33
2022-07-27T03:08:17.823Z,7.60
2022-07-27T03:13:21.121Z,4.73
2022-07-27T03:18:25.071Z,5.03
2022-07-27T03:23:29.077Z,7.47
2022-07-27T03:28:32.700Z,4.73
2022-07-27T03:33:36.574Z,4.37
2022-07-27T03:38:39.804Z,5.67
2022-07-27T03:43:43.699Z,6.93
2022-07-27T03:48:47.093Z,7.67
2022-07-27T03:53:50.580Z,7.37
2022-07-27T03:58:53.948Z,8.23
2022-07-27T04:03:57.752Z,7.17
2022-07-27T04:09:08.669Z,8.27
2022-07-27T04:14:13.480Z,7.23
2022-07-27T04:19:16.881Z,8.17
2022-07-27T04:24:20.021Z,10.90
2022-07-27T04:29:23.690Z,9.07
2022-07-27T04:34:27.219Z,13.20
2022-07-27T04:39:30.511Z,10.10
2022-07-27T04:44:34.360Z,10.60
2022-07-27T04:49:37.700Z,10.47
2022-07-27T04:54:40.943Z,8.93
2022-07-27T04:59:44.131Z,10.30
2022-07-27T05:04:47.544Z,6.93
2022-07-27T05:09:50.679Z,9.03
2022-07-27T05:14:54.059Z,9.90
2022-07-27T05:19:57.422Z,10.43
2022-07-27T05:25:00.659Z,11.00
2022-07-27T05:30:06.101Z,8.07
2022-07-27T05:35:09.781Z,9.93
2022-07-27T05:40:13.727Z,6.47
2022-07-27T05:45:17.379Z,4.53
2022-07-27T05:50:20.555Z,5.50
2022-07-27T05:55:24.301Z,9.13
2022-07-27T06:00:27.738Z,6.63
2022-07-27T06:05:31.641Z,10.37
2022-07-27T06:10:36.340Z,8.23
2022-07-27T06:15:40.819Z,11.03
2022-07-27T06:20:44.101Z,4.87
2022-07-27T06:25:47.221Z,6.50
2022-07-27T06:30:50.600Z,7.70
2022-07-27T06:35:55.153Z,7.27
2022-07-27T06:40:58.986Z,10.37
2022-07-27T06:46:03.833Z,10.20
2022-07-27T06:51:07.820Z,11.32
2022-07-27T06:56:11.262Z,6.90
2022-07-27T07:01:16.342Z,11.52
2022-07-27T07:06:20.022Z,8.35
2022-07-27T07:11:23.345Z,8.43
2022-07-27T07:16:27.195Z,10.43
2022-07-27T07:21:30.483Z,8.75
2022-07-27T07:26:33.621Z,8.13
2022-07-27T07:31:37.250Z,6.32
2022-07-27T07:36:40.822Z,3.38
2022-07-27T07:41:51.084Z,12.52
2022-07-27T07:46:54.467Z,5.13
2022-07-27T07:51:57.798Z,5.75
2022-07-27T07:57:00.804Z,9.70
2022-07-27T08:02:05.005Z,5.13
2022-07-27T08:07:08.209Z,7.80
2022-07-27T08:12:11.332Z,5.15
2022-07-27T08:17:14.384Z,6.47
2022-07-27T08:22:17.999Z,5.57
2022-07-27T08:27:21.280Z,8.90
2022-07-27T08:32:25.737Z,4.78
2022-07-27T08:37:32.062Z,7.95
2022-07-27T08:42:35.080Z,11.57
2022-07-27T08:47:41.700Z,7.28
2022-07-27T08:52:45.300Z,8.05
2022-07-27T08:57:48.476Z,4.47
2022-07-27T09:02:51.993Z,5.78
2022-07-27T09:07:56.000Z,4.53
2022-07-27T09:12:59.824Z,6.10
2022-07-27T09:18:27.642Z,10.18
2022-07-27T09:23:31.060Z,7.07
2022-07-27T09:28:34.559Z,5.72
2022-07-27T09:33:46.512Z,8.02
2022-07-27T09:39:07.077Z,3.83
2022-07-27T09:49:36.100Z,3.10
2022-07-27T09:54:44.756Z,3.83
2022-07-27T09:59:48.373Z,5.38
2022-07-27T10:04:51.667Z,3.70
2022-07-27T10:09:55.743Z,6.18
2022-07-27T10:14:59.960Z,6.75
2022-07-27T10:20:09.300Z,2.45
2022-07-27T10:25:12.560Z,2.25
2022-07-27T10:30:24.291Z,6.78
2022-07-27T10:35:36.104Z,5.40
2022-07-27T10:40:40.241Z,3.88
2022-07-27T10:46:01.772Z,5.00
2022-07-27T10:51:09.939Z,2.97
2022-07-27T10:56:13.667Z,3.38
2022-07-27T11:01:17.635Z,4.50
2022-07-27T11:06:34.083Z,5.57
2022-07-27T11:11:41.384Z,3.58
2022-07-27T11:16:55.574Z,3.55
2022-07-27T11:22:04.501Z,1.42
2022-07-27T11:27:17.059Z,1.65
2022-07-27T11:32:22.801Z,3.75
2022-07-27T11:37:26.062Z,4.00
2022-07-27T11:42:39.666Z,3.80
2022-07-27T11:47:43.501Z,2.53
2022-07-27T11:53:01.243Z,2.08
2022-07-27T11:58:05.414Z,3.47
2022-07-27T12:03:08.856Z,3.38
2022-07-27T12:08:12.693Z,2.50
2022-07-27T12:13:19.689Z,4.53
2022-07-27T12:18:22.764Z,4.05
2022-07-27T12:23:30.182Z,3.80
2022-07-27T12:28:33.037Z,3.22
2022-07-27T12:33:39.097Z,3.03
2022-07-27T12:38:44.163Z,2.83
2022-07-27T12:44:22.522Z,3.75
2022-07-27T12:49:26.341Z,9.10
2022-07-27T12:54:29.587Z,2.35
2022-07-27T12:59:33.503Z,6.15
2022-07-27T13:04:36.607Z,4.25
2022-07-27T13:10:02.163Z,4.68
2022-07-27T13:15:07.574Z,3.10
2022-07-27T13:20:11.982Z,4.20
2022-07-27T13:25:17.449Z,2.58
2022-07-27T13:30:21.686Z,1.70
2022-07-27T13:35:24.760Z,1.95
2022-07-27T13:40:27.984Z,5.32
2022-07-27T13:45:31.292Z,2.38
2022-07-27T13:50:46.422Z,2.50
2022-07-27T13:55:49.715Z,2.83
2022-07-27T14:00:53.338Z,2.03
2022-07-27T14:05:56.820Z,5.53
2022-07-27T14:11:00.362Z,5.35
2022-07-27T14:16:03.561Z,5.90
2022-07-27T14:21:08.399Z,4.97
2022-07-27T14:26:12.004Z,1.45
2022-07-27T14:31:15.510Z,3.53
2022-07-27T14:36:19.041Z,1.67
2022-07-27T14:41:22.246Z,2.70
2022-07-27T14:46:25.583Z,2.97
2022-07-27T14:51:30.141Z,4.57
2022-07-27T14:56:33.320Z,2.90
2022-07-27T15:01:38.170Z,2.97
2022-07-27T15:06:42.340Z,2.40
2022-07-27T15:11:47.044Z,1.17
2022-07-27T15:16:51.064Z,1.63
2022-07-27T15:21:54.024Z,4.78
2022-07-27T15:26:57.322Z,2.20
2022-07-27T15:32:00.888Z,1.02
2022-07-27T15:37:07.724Z,3.70
2022-07-27T15:42:10.966Z,2.90
2022-07-27T15:47:14.279Z,1.58
2022-07-27T15:52:17.560Z,4.90
2022-07-27T15:57:21.582Z,2.55
2022-07-27T16:02:27.079Z,3.30
2022-07-27T16:07:32.531Z,3.50
2022-07-27T16:12:45.495Z,6.22
2022-07-27T16:17:48.820Z,3.63
2022-07-27T16:22:51.860Z,3.03
2022-07-27T16:27:55.621Z,2.15
2022-07-27T16:32:59.479Z,3.90
2022-07-27T16:38:02.681Z,3.92
2022-07-27T16:43:05.979Z,2.72
2022-07-27T16:48:09.679Z,5.80
2022-07-27T16:53:12.901Z,5.25
2022-07-27T16:58:16.321Z,3.67
2022-07-27T17:03:19.841Z,5.28
2022-07-27T17:08:26.067Z,4.85
2022-07-27T17:13:34.084Z,5.10
2022-07-27T17:18:40.594Z,5.35
2022-07-27T17:23:45.482Z,5.57
2022-07-27T17:28:48.620Z,6.82
2022-07-27T17:33:52.981Z,4.45
2022-07-27T17:38:56.212Z,4.45
2022-07-27T17:44:00.487Z,7.45
2022-07-27T17:49:03.776Z,7.75
2022-07-27T17:54:07.303Z,6.95
2022-07-27T17:59:36.027Z,8.15
2022-07-27T18:04:39.074Z,6.13
2022-07-27T18:09:43.387Z,8.27
2022-07-27T18:15:05.385Z,7.63
2022-07-27T18:20:10.382Z,5.72
2022-07-27T18:25:13.672Z,4.68
2022-07-27T18:30:16.840Z,7.47
2022-07-27T18:35:20.860Z,5.40
2022-07-27T18:40:24.005Z,5.22
2022-07-27T18:45:34.372Z,4.43
2022-07-27T18:50:52.438Z,7.22
2022-07-27T18:55:57.521Z,11.27
2022-07-27T19:01:01.119Z,9.38
2022-07-27T19:06:04.252Z,5.07
2022-07-27T19:11:08.023Z,4.45
2022-07-27T19:16:11.281Z,7.80
2022-07-27T19:21:14.480Z,4.70
2022-07-27T19:26:18.342Z,4.20
2022-07-27T19:31:23.802Z,5.05
2022-07-27T19:36:28.221Z,4.63
2022-07-27T19:41:31.741Z,11.37
2022-07-27T19:46:35.260Z,7.43
2022-07-27T19:51:38.920Z,7.30
2022-07-27T19:56:42.220Z,6.40
2022-07-27T20:01:45.474Z,5.30
2022-07-27T20:06:48.722Z,6.20
2022-07-27T20:11:56.861Z,5.70
2022-07-27T20:17:03.716Z,9.80
2022-07-27T20:22:07.581Z,9.33
2022-07-27T20:27:10.546Z,8.63
2022-07-27T20:32:15.662Z,6.20
2022-07-27T20:37:19.613Z,9.63
2022-07-27T20:42:23.323Z,5.40
2022-07-27T20:47:34.701Z,10.17
2022-07-27T20:52:43.885Z,8.47
2022-07-27T20:57:48.342Z,6.07
2022-07-27T21:02:51.406Z,7.77
2022-07-27T21:07:58.183Z,11.87
2022-07-27T21:13:02.622Z,8.73
2022-07-27T21:18:06.742Z,10.87
2022-07-27T21:23:28.322Z,14.43
2022-07-27T21:28:32.000Z,13.00
2022-07-27T21:33:39.771Z,12.87
2022-07-27T21:38:43.522Z,15.17
2022-07-27T21:43:54.736Z,14.20
2022-07-27T21:48:58.204Z,14.63
2022-07-27T21:54:02.745Z,13.97
2022-07-27T21:59:05.981Z,14.67
2022-07-27T22:04:11.842Z,13.37
2022-07-27T22:09:15.340Z,12.47
2022-07-27T22:14:18.521Z,15.60
2022-07-27T22:19:21.875Z,11.60
2022-07-27T22:24:25.502Z,13.67
2022-07-27T22:29:28.863Z,13.30
2022-07-27T22:34:31.984Z,11.57
2022-07-27T22:39:35.222Z,11.43
2022-07-27T22:44:42.794Z,18.80
2022-07-27T22:49:45.961Z,10.80
2022-07-27T22:54:49.241Z,13.40
2022-07-27T22:59:55.720Z,13.73
2022-07-27T23:05:01.031Z,12.30
2022-07-27T23:10:05.221Z,14.27
2022-07-27T23:15:08.623Z,12.73
2022-07-27T23:20:13.181Z,12.73
2022-07-27T23:25:16.631Z,12.67
2022-07-27T23:30:20.540Z,12.47
2022-07-27T23:35:24.081Z,9.47
2022-07-27T23:40:27.980Z,9.40
2022-07-27T23:45:31.320Z,12.17
2022-07-27T23:50:34.781Z,13.40
2022-07-27T23:55:38.201Z,11.50
